createdAt,value
2022-07-26T00:01:20.425Z,18.13
2022-07-26T00:03:49.803Z,17.30
2022-07-26T00:06:19.021Z,17.30
2022-07-26T00:08:47.854Z,16.60
2022-07-26T00:11:16.769Z,17.77
2022-07-26T00:13:45.288Z,18.20
2022-07-26T00:16:16.133Z,19.73
2022-07-26T00:18:44.528Z,18.80
2022-07-26T00:21:12.730Z,19.30
2022-07-26T00:23:41.492Z,18.67
2022-07-26T00:26:10.851Z,19.17
2022-07-26T00:28:39.308Z,19.07
2022-07-26T00:31:07.598Z,19.90
2022-07-26T00:33:37.216Z,18.40
2022-07-26T00:36:05.963Z,19.97
2022-07-26T00:38:34.201Z,17.97
2022-07-26T00:41:03.184Z,19.00
2022-07-26T00:43:31.535Z,18.10
2022-07-26T00:46:00.118Z,20.33
2022-07-26T00:48:28.480Z,19.57
2022-07-26T00:50:58.097Z,20.20
2022-07-26T00:53:26.290Z,20.33
2022-07-26T00:55:54.855Z,18.90
2022-07-26T00:58:23.032Z,20.30
2022-07-26T01:00:51.281Z,20.00
2022-07-26T01:03:19.474Z,19.43
2022-07-26T01:05:48.373Z,19.60
2022-07-26T01:08:18.099Z,20.13
2022-07-26T01:10:46.283Z,18.50
2022-07-26T01:13:16.219Z,18.70
2022-07-26T01:15:44.446Z,18.50
2022-07-26T01:18:12.716Z,18.27
2022-07-26T01:20:40.986Z,19.27
2022-07-26T01:23:10.604Z,21.40
2022-07-26T01:25:42.336Z,20.10
2022-07-26T01:28:11.940Z,18.00
2022-07-26T01:30:49.098Z,20.13
2022-07-26T01:33:17.483Z,19.93
2022-07-26T01:35:45.704Z,19.97
2022-07-26T01:38:15.651Z,18.67
2022-07-26T01:40:43.892Z,19.30
2022-07-26T01:43:12.183Z,19.10
2022-07-26T01:45:40.433Z,19.23
2022-07-26T01:48:08.795Z,17.60
2022-07-26T01:50:37.351Z,19.30
2022-07-26T01:53:06.167Z,18.87
2022-07-26T01:55:36.056Z,19.63
2022-07-26T01:58:05.160Z,19.17
2022-07-26T02:00:34.022Z,18.73
2022-07-26T02:03:02.479Z,18.37
2022-07-26T02:05:30.990Z,19.13
2022-07-26T02:07:59.355Z,19.20
2022-07-26T02:10:49.710Z,18.73
2022-07-26T02:13:19.638Z,19.33
2022-07-26T02:15:47.903Z,20.87
2022-07-26T02:18:16.286Z,19.23
2022-07-26T02:20:44.591Z,18.50
2022-07-26T02:23:13.161Z,18.43
2022-07-26T02:25:41.310Z,17.90
2022-07-26T02:28:09.572Z,17.80
2022-07-26T02:30:39.450Z,19.57
2022-07-26T02:33:07.751Z,19.47
2022-07-26T02:35:35.971Z,20.33
2022-07-26T02:38:04.830Z,18.23
2022-07-26T02:40:33.961Z,18.53
2022-07-26T02:43:02.901Z,19.23
2022-07-26T02:45:31.102Z,18.80
2022-07-26T02:48:00.822Z,19.97
2022-07-26T02:50:31.036Z,21.00
2022-07-26T02:52:59.364Z,20.40
2022-07-26T02:55:28.783Z,19.87
2022-07-26T02:57:56.932Z,20.47
2022-07-26T03:00:27.683Z,20.50
2022-07-26T03:02:56.051Z,20.37
2022-07-26T03:05:25.739Z,20.17
2022-07-26T03:07:54.745Z,20.73
2022-07-26T03:10:23.028Z,21.20
2022-07-26T03:12:51.192Z,21.47
2022-07-26T03:15:19.467Z,22.50
2022-07-26T03:17:47.731Z,20.30
2022-07-26T03:20:16.072Z,21.17
2022-07-26T03:22:45.628Z,20.30
2022-07-26T03:25:14.075Z,20.13
2022-07-26T03:27:42.387Z,21.50
2022-07-26T03:30:12.006Z,20.40
2022-07-26T03:32:40.978Z,23.00
2022-07-26T03:35:09.957Z,20.87
2022-07-26T03:37:44.800Z,22.17
2022-07-26T03:40:16.933Z,22.47
2022-07-26T03:42:45.922Z,20.80
2022-07-26T03:45:14.513Z,21.27
2022-07-26T03:47:43.584Z,21.07
2022-07-26T03:50:13.755Z,20.37
2022-07-26T03:52:42.405Z,22.53
2022-07-26T03:55:28.754Z,22.13
2022-07-26T03:57:58.918Z,22.87
2022-07-26T04:00:27.419Z,22.03
2022-07-26T04:02:55.669Z,23.10
2022-07-26T04:05:26.084Z,24.17
2022-07-26T04:07:54.549Z,23.13
2022-07-26T04:10:24.312Z,21.60
2022-07-26T04:12:52.520Z,22.93
2022-07-26T04:15:22.473Z,23.63
2022-07-26T04:17:50.811Z,22.50
2022-07-26T04:20:19.414Z,23.57
2022-07-26T04:22:47.571Z,22.70
2022-07-26T04:25:16.096Z,23.20
2022-07-26T04:27:44.357Z,24.00
2022-07-26T04:30:15.434Z,22.10
2022-07-26T04:32:46.412Z,22.70
2022-07-26T04:35:16.576Z,23.30
2022-07-26T04:37:45.940Z,22.37
2022-07-26T04:40:21.142Z,23.43
2022-07-26T04:42:50.339Z,24.13
2022-07-26T04:45:18.963Z,22.13
2022-07-26T04:47:50.746Z,24.37
2022-07-26T04:50:20.047Z,23.80
2022-07-26T04:52:48.368Z,23.10
2022-07-26T04:55:16.669Z,23.80
2022-07-26T04:57:45.446Z,25.40
2022-07-26T05:00:21.979Z,25.47
2022-07-26T05:02:53.759Z,24.80
2022-07-26T05:05:22.488Z,23.50
2022-07-26T05:07:52.898Z,22.77
2022-07-26T05:10:22.214Z,25.07
2022-07-26T05:12:50.961Z,25.20
2022-07-26T05:15:18.892Z,25.30
2022-07-26T05:17:47.095Z,27.07
2022-07-26T05:20:17.987Z,24.60
2022-07-26T05:22:47.090Z,23.90
2022-07-26T05:25:15.515Z,22.90
2022-07-26T05:27:43.702Z,24.77
2022-07-26T05:30:12.474Z,26.07
2022-07-26T05:32:40.687Z,24.27
2022-07-26T05:35:10.054Z,25.87
2022-07-26T05:37:39.826Z,24.60
2022-07-26T05:40:08.839Z,25.03
2022-07-26T05:42:37.199Z,24.83
2022-07-26T05:45:05.923Z,25.07
2022-07-26T05:47:34.306Z,24.40
2022-07-26T05:50:02.603Z,22.30
2022-07-26T05:52:30.847Z,25.53
2022-07-26T05:55:00.570Z,23.80
2022-07-26T05:57:28.809Z,24.90
2022-07-26T05:59:57.566Z,23.07
2022-07-26T06:02:25.854Z,23.73
2022-07-26T06:04:54.130Z,22.23
2022-07-26T06:07:22.804Z,23.30
2022-07-26T06:09:50.982Z,22.63
2022-07-26T06:12:20.947Z,24.20
2022-07-26T06:14:49.157Z,22.00
2022-07-26T06:17:17.381Z,22.90
2022-07-26T06:19:47.746Z,23.20
2022-07-26T06:22:16.329Z,24.57
2022-07-26T06:24:44.500Z,23.27
2022-07-26T06:27:12.683Z,21.23
2022-07-26T06:29:42.255Z,23.10
2022-07-26T06:32:10.609Z,21.60
2022-07-26T06:34:38.871Z,23.60
2022-07-26T06:37:07.046Z,24.80
2022-07-26T06:39:35.231Z,22.80
2022-07-26T06:42:03.391Z,23.93
2022-07-26T06:44:31.552Z,21.97
2022-07-26T06:47:01.095Z,21.73
2022-07-26T06:49:29.408Z,21.37
2022-07-26T06:51:58.189Z,20.80
2022-07-26T06:54:26.357Z,22.53
2022-07-26T06:56:54.527Z,20.27
2022-07-26T06:59:22.742Z,21.27
2022-07-26T07:01:58.966Z,23.17
2022-07-26T07:04:30.037Z,21.10
2022-07-26T07:07:03.907Z,22.57
2022-07-26T07:09:35.094Z,21.17
2022-07-26T07:12:09.855Z,20.57
2022-07-26T07:14:38.776Z,20.33
2022-07-26T07:17:13.083Z,21.07
2022-07-26T07:19:44.563Z,20.97
2022-07-26T07:22:12.916Z,21.40
2022-07-26T07:24:42.347Z,19.77
2022-07-26T07:27:11.347Z,21.50
2022-07-26T07:29:43.257Z,20.03
2022-07-26T07:32:18.346Z,21.93
2022-07-26T07:34:49.564Z,22.40
2022-07-26T07:37:18.308Z,19.00
2022-07-26T07:39:50.389Z,19.93
2022-07-26T07:42:19.576Z,19.73
2022-07-26T07:44:50.003Z,21.20
2022-07-26T07:47:18.271Z,20.80
2022-07-26T07:49:46.449Z,21.67
2022-07-26T07:52:16.069Z,20.80
2022-07-26T07:54:46.483Z,22.30
2022-07-26T07:57:14.669Z,20.70
2022-07-26T07:59:42.924Z,20.47
2022-07-26T08:02:12.832Z,20.90
2022-07-26T08:04:41.094Z,20.40
2022-07-26T08:07:09.573Z,20.27
2022-07-26T08:09:42.906Z,21.37
2022-07-26T08:12:12.307Z,21.73
2022-07-26T08:14:41.477Z,19.70
2022-07-26T08:17:09.835Z,20.00
2022-07-26T08:19:41.835Z,20.73
2022-07-26T08:22:11.230Z,20.00
2022-07-26T08:24:40.808Z,19.40
2022-07-26T08:27:09.118Z,20.73
2022-07-26T08:29:37.264Z,21.13
2022-07-26T08:32:06.255Z,20.27
2022-07-26T08:34:34.550Z,19.80
2022-07-26T08:37:18.564Z,19.17
2022-07-26T08:39:48.992Z,19.83
2022-07-26T08:42:22.574Z,20.80
2022-07-26T08:44:52.800Z,21.17
2022-07-26T08:47:37.541Z,19.80
2022-07-26T08:50:09.573Z,19.73
2022-07-26T08:52:40.996Z,19.93
2022-07-26T08:55:12.138Z,21.40
2022-07-26T08:57:40.977Z,19.60
2022-07-26T09:00:20.680Z,19.73
2022-07-26T09:02:49.266Z,19.47
2022-07-26T09:05:20.793Z,17.97
2022-07-26T09:07:48.981Z,19.37
2022-07-26T09:10:18.547Z,17.67
2022-07-26T09:12:47.029Z,19.30
2022-07-26T09:15:23.330Z,18.80
2022-07-26T09:17:53.086Z,18.40
2022-07-26T09:20:24.328Z,19.10
2022-07-26T09:23:02.552Z,19.07
2022-07-26T09:25:33.482Z,17.60
2022-07-26T09:28:02.730Z,19.53
2022-07-26T09:30:33.067Z,20.20
2022-07-26T09:33:03.928Z,19.70
2022-07-26T09:35:51.678Z,16.67
2022-07-26T09:38:20.939Z,16.90
2022-07-26T09:40:51.765Z,16.40
2022-07-26T09:43:23.833Z,17.20
2022-07-26T09:46:07.368Z,16.97
2022-07-26T09:49:10.102Z,15.60
2022-07-26T09:51:40.546Z,16.67
2022-07-26T09:54:10.315Z,16.70
2022-07-26T09:56:51.243Z,16.10
2022-07-26T09:59:21.901Z,15.40
2022-07-26T10:01:51.679Z,15.67
2022-07-26T10:04:20.612Z,16.00
2022-07-26T10:06:49.899Z,16.90
2022-07-26T10:09:19.543Z,16.87
2022-07-26T10:11:55.607Z,18.20
2022-07-26T10:14:40.786Z,17.13
2022-07-26T10:17:40.899Z,14.90
2022-07-26T10:20:19.256Z,16.70
2022-07-26T10:22:52.947Z,15.90
2022-07-26T10:25:46.737Z,17.90
2022-07-26T10:28:27.097Z,15.90
2022-07-26T10:31:32.770Z,18.07
2022-07-26T10:34:02.542Z,17.00
2022-07-26T10:36:35.132Z,17.33
2022-07-26T10:39:07.163Z,16.80
2022-07-26T10:41:38.296Z,16.77
2022-07-26T10:44:23.151Z,17.20
2022-07-26T10:47:00.104Z,17.10
2022-07-26T10:49:31.936Z,17.10
2022-07-26T10:52:13.799Z,15.93
2022-07-26T10:55:11.123Z,16.50
2022-07-26T10:57:41.112Z,17.23
2022-07-26T11:00:14.798Z,15.50
2022-07-26T11:02:44.537Z,16.00
2022-07-26T11:05:14.610Z,15.70
2022-07-26T11:08:08.240Z,15.80
2022-07-26T11:10:39.573Z,15.60
2022-07-26T11:13:14.024Z,15.50
2022-07-26T11:15:46.334Z,14.80
2022-07-26T11:18:21.437Z,15.50
2022-07-26T11:20:52.895Z,16.07
2022-07-26T11:23:33.648Z,16.17
2022-07-26T11:26:03.852Z,15.90
2022-07-26T11:28:43.618Z,15.03
2022-07-26T11:31:16.871Z,15.37
2022-07-26T11:33:51.029Z,15.00
2022-07-26T11:36:20.766Z,15.73
2022-07-26T11:38:52.082Z,14.73
2022-07-26T11:41:34.583Z,15.50
2022-07-26T11:44:04.387Z,14.10
2022-07-26T11:46:37.584Z,13.83
2022-07-26T11:49:13.272Z,16.03
2022-07-26T11:51:41.713Z,14.60
2022-07-26T11:54:10.038Z,14.10
2022-07-26T11:56:38.508Z,16.03
2022-07-26T11:59:06.981Z,16.83
2022-07-26T12:01:36.581Z,15.27
2022-07-26T12:04:05.150Z,16.10
2022-07-26T12:06:39.847Z,15.30
2022-07-26T12:09:08.167Z,16.63
2022-07-26T12:11:41.872Z,16.07
2022-07-26T12:14:12.596Z,15.70
2022-07-26T12:16:47.180Z,16.50
2022-07-26T12:19:26.635Z,15.53
2022-07-26T12:21:57.052Z,14.30
2022-07-26T12:24:46.821Z,15.13
2022-07-26T12:27:19.480Z,15.93
2022-07-26T12:29:49.500Z,16.20
2022-07-26T12:32:20.770Z,17.03
2022-07-26T12:35:00.876Z,15.83
2022-07-26T12:37:39.947Z,16.27
2022-07-26T12:40:11.820Z,16.23
2022-07-26T12:42:41.716Z,15.20
2022-07-26T12:45:13.515Z,16.23
2022-07-26T12:47:47.498Z,15.20
2022-07-26T12:50:17.895Z,14.47
2022-07-26T12:52:46.387Z,15.20
2022-07-26T12:55:17.809Z,15.37
2022-07-26T12:57:47.883Z,16.20
2022-07-26T13:00:18.579Z,15.87
2022-07-26T13:02:48.992Z,15.67
2022-07-26T13:05:17.284Z,14.87
2022-07-26T13:07:45.687Z,14.90
2022-07-26T13:10:32.439Z,15.40
2022-07-26T13:13:02.052Z,14.20
2022-07-26T13:15:36.511Z,15.17
2022-07-26T13:18:09.197Z,13.97
2022-07-26T13:20:38.749Z,15.40
2022-07-26T13:23:09.831Z,14.60
2022-07-26T13:25:40.599Z,15.33
2022-07-26T13:28:10.031Z,13.60
2022-07-26T13:30:42.983Z,14.50
2022-07-26T13:33:13.122Z,14.50
2022-07-26T13:35:42.695Z,13.80
2022-07-26T13:38:11.140Z,13.73
2022-07-26T13:40:39.479Z,13.73
2022-07-26T13:43:07.636Z,15.00
2022-07-26T13:45:35.869Z,15.23
2022-07-26T13:48:04.445Z,14.43
2022-07-26T13:50:34.243Z,14.47
2022-07-26T13:53:02.472Z,14.93
2022-07-26T13:55:30.632Z,15.60
2022-07-26T13:57:59.034Z,15.43
2022-07-26T14:00:28.713Z,15.43
2022-07-26T14:02:59.444Z,14.93
2022-07-26T14:05:28.947Z,14.47
2022-07-26T14:07:58.873Z,14.17
2022-07-26T14:10:27.459Z,14.33
2022-07-26T14:12:55.642Z,13.90
2022-07-26T14:15:23.955Z,14.10
2022-07-26T14:17:52.732Z,16.07
2022-07-26T14:20:21.420Z,14.90
2022-07-26T14:22:53.373Z,14.30
2022-07-26T14:25:24.034Z,14.83
2022-07-26T14:27:52.549Z,14.73
2022-07-26T14:30:22.017Z,14.60
2022-07-26T14:32:50.733Z,15.27
2022-07-26T14:35:19.109Z,13.70
2022-07-26T14:37:47.603Z,14.87
2022-07-26T14:40:17.309Z,15.27
2022-07-26T14:42:47.639Z,15.30
2022-07-26T14:45:16.343Z,14.70
2022-07-26T14:47:45.234Z,14.53
2022-07-26T14:50:14.748Z,12.53
2022-07-26T14:52:45.725Z,13.70
2022-07-26T14:55:14.451Z,13.83
2022-07-26T14:57:43.902Z,13.77
2022-07-26T15:00:15.733Z,13.63
2022-07-26T15:02:46.078Z,14.30
2022-07-26T15:05:15.128Z,13.10
2022-07-26T15:07:43.919Z,13.50
2022-07-26T15:10:14.596Z,13.77
2022-07-26T15:12:43.413Z,12.97
2022-07-26T15:15:13.242Z,13.40
2022-07-26T15:17:41.417Z,13.03
2022-07-26T15:20:10.282Z,13.27
2022-07-26T15:22:38.504Z,13.30
2022-07-26T15:25:07.897Z,13.67
2022-07-26T15:27:36.151Z,13.40
2022-07-26T15:30:09.104Z,12.60
2022-07-26T15:32:43.300Z,12.20
2022-07-26T15:35:14.047Z,12.80
2022-07-26T15:37:44.795Z,12.23
2022-07-26T15:40:14.013Z,13.50
2022-07-26T15:42:44.174Z,13.87
2022-07-26T15:45:13.365Z,13.00
2022-07-26T15:48:08.359Z,12.70
2022-07-26T15:50:32.191Z,13.53
2022-07-26T15:53:00.482Z,12.50
2022-07-26T15:55:28.671Z,13.27
2022-07-26T15:57:56.965Z,12.50
2022-07-26T16:00:25.648Z,13.60
2022-07-26T16:02:55.403Z,12.87
2022-07-26T16:05:23.608Z,13.23
2022-07-26T16:07:51.791Z,13.40
2022-07-26T16:10:19.960Z,14.97
2022-07-26T16:12:48.136Z,14.03
2022-07-26T16:15:16.283Z,14.50
2022-07-26T16:17:44.519Z,12.97
2022-07-26T16:20:15.791Z,14.30
2022-07-26T16:22:43.936Z,13.77
2022-07-26T16:25:13.771Z,13.20
2022-07-26T16:27:43.425Z,13.17
2022-07-26T16:30:13.162Z,14.33
2022-07-26T16:32:41.431Z,14.00
2022-07-26T16:35:10.817Z,14.10
2022-07-26T16:37:41.562Z,13.63
2022-07-26T16:40:11.355Z,14.27
2022-07-26T16:42:39.701Z,14.40
2022-07-26T16:45:09.145Z,13.87
2022-07-26T16:47:37.328Z,14.30
2022-07-26T16:50:06.408Z,14.80
2022-07-26T16:52:34.630Z,14.10
2022-07-26T16:55:05.647Z,14.77
2022-07-26T16:57:33.849Z,14.80
2022-07-26T17:00:02.013Z,13.50
2022-07-26T17:02:30.275Z,15.50
2022-07-26T17:04:58.799Z,15.07
2022-07-26T17:07:27.013Z,15.20
2022-07-26T17:09:55.783Z,14.57
2022-07-26T17:12:25.941Z,14.60
2022-07-26T17:14:54.119Z,15.20
2022-07-26T17:17:22.336Z,16.30
2022-07-26T17:19:50.826Z,15.47
2022-07-26T17:22:19.753Z,15.63
2022-07-26T17:24:48.932Z,15.93
2022-07-26T17:27:17.931Z,16.40
2022-07-26T17:29:47.537Z,14.07
2022-07-26T17:32:15.919Z,14.30
2022-07-26T17:34:44.261Z,15.90
2022-07-26T17:37:12.840Z,15.00
2022-07-26T17:39:52.792Z,16.20
2022-07-26T17:42:22.508Z,17.47
2022-07-26T17:44:52.403Z,17.60
2022-07-26T17:47:29.089Z,16.80
2022-07-26T17:52:51.424Z,17.10
2022-07-26T17:55:20.454Z,14.10
2022-07-26T17:57:50.337Z,16.00
2022-07-26T18:00:21.659Z,15.50
2022-07-26T18:02:50.179Z,14.73
2022-07-26T18:05:19.667Z,18.80
2022-07-26T18:07:47.930Z,18.87
2022-07-26T18:10:16.184Z,17.67
2022-07-26T18:12:44.364Z,16.27
2022-07-26T18:15:12.790Z,18.13
2022-07-26T18:17:42.621Z,16.67
2022-07-26T18:20:12.238Z,16.97
2022-07-26T18:22:40.609Z,16.30
2022-07-26T18:25:09.578Z,16.70
2022-07-26T18:27:37.825Z,17.77
2022-07-26T18:30:07.145Z,16.67
2022-07-26T18:32:35.779Z,16.70
2022-07-26T18:35:06.073Z,18.33
2022-07-26T18:37:34.394Z,17.50
2022-07-26T18:40:02.759Z,17.50
2022-07-26T18:42:30.949Z,16.43
2022-07-26T18:44:59.070Z,16.13
2022-07-26T18:47:27.431Z,17.40
2022-07-26T18:49:55.590Z,26.13
2022-07-26T18:52:32.264Z,26.00
2022-07-26T18:55:02.602Z,18.00
2022-07-26T18:57:30.909Z,16.10
2022-07-26T18:59:59.204Z,18.70
2022-07-26T19:02:27.515Z,28.20
2022-07-26T19:04:55.731Z,36.43
2022-07-26T19:07:25.431Z,124.03
2022-07-26T19:09:58.184Z,74.40
2022-07-26T19:12:27.562Z,39.23
2022-07-26T19:14:56.225Z,24.40
2022-07-26T19:17:24.394Z,20.27
2022-07-26T19:19:52.632Z,20.60
2022-07-26T19:22:23.210Z,20.73
2022-07-26T19:24:53.489Z,21.57
2022-07-26T19:27:21.696Z,19.10
2022-07-26T19:29:50.015Z,19.00
2022-07-26T19:32:18.350Z,18.20
2022-07-26T19:34:46.533Z,17.73
2022-07-26T19:37:19.771Z,17.87
2022-07-26T19:39:48.505Z,18.60
2022-07-26T19:42:18.417Z,17.07
2022-07-26T19:44:47.518Z,18.63
2022-07-26T19:47:15.892Z,17.23
2022-07-26T19:49:44.129Z,18.93
2022-07-26T19:52:12.355Z,17.53
2022-07-26T19:54:41.061Z,27.53
2022-07-26T19:57:09.379Z,18.30
2022-07-26T19:59:39.024Z,19.60
2022-07-26T20:02:07.534Z,19.57
2022-07-26T20:04:35.844Z,20.00
2022-07-26T20:07:04.298Z,19.00
2022-07-26T20:09:32.980Z,18.53
2022-07-26T20:12:01.731Z,18.00
2022-07-26T20:14:29.973Z,20.07
2022-07-26T20:16:59.667Z,19.23
2022-07-26T20:19:28.181Z,20.10
2022-07-26T20:21:56.461Z,19.23
2022-07-26T20:24:24.636Z,19.87
2022-07-26T20:26:52.911Z,20.50
2022-07-26T20:29:21.098Z,19.87
2022-07-26T20:31:49.305Z,21.27
2022-07-26T20:34:18.851Z,19.97
2022-07-26T20:36:47.596Z,21.17
2022-07-26T20:39:15.929Z,19.70
2022-07-26T20:41:44.184Z,19.00
2022-07-26T20:44:14.293Z,20.67
2022-07-26T20:46:42.686Z,22.80
2022-07-26T20:49:11.549Z,23.33
2022-07-26T20:51:41.387Z,22.00
2022-07-26T20:54:10.325Z,22.00
2022-07-26T20:56:38.939Z,20.87
2022-07-26T20:59:07.444Z,22.00
2022-07-26T21:01:36.041Z,21.83
2022-07-26T21:04:04.636Z,19.43
2022-07-26T21:06:34.193Z,19.83
2022-07-26T21:09:09.678Z,19.43
2022-07-26T21:11:39.532Z,18.93
2022-07-26T21:14:08.165Z,19.10
2022-07-26T21:16:36.554Z,19.80
2022-07-26T21:19:06.464Z,19.73
2022-07-26T21:21:37.024Z,18.30
2022-07-26T21:24:08.215Z,18.60
2022-07-26T21:26:36.413Z,19.23
2022-07-26T21:29:06.224Z,19.93
2022-07-26T21:31:34.409Z,18.70
2022-07-26T21:34:02.645Z,19.97
2022-07-26T21:36:30.958Z,18.63
2022-07-26T21:38:59.509Z,18.57
2022-07-26T21:41:29.110Z,17.63
2022-07-26T21:43:57.278Z,19.40
2022-07-26T21:46:25.540Z,17.60
2022-07-26T21:48:54.093Z,17.30
2022-07-26T21:51:22.353Z,18.13
2022-07-26T21:53:50.522Z,19.30
2022-07-26T21:56:19.022Z,18.67
2022-07-26T21:58:49.080Z,20.57
2022-07-26T22:01:17.354Z,20.07
2022-07-26T22:03:45.566Z,19.67
2022-07-26T22:06:13.774Z,19.70
2022-07-26T22:08:42.019Z,19.20
2022-07-26T22:11:10.555Z,20.23
2022-07-26T22:13:39.218Z,18.37
2022-07-26T22:16:08.828Z,20.60
2022-07-26T22:18:37.061Z,18.77
2022-07-26T22:21:05.623Z,19.07
2022-07-26T22:23:33.970Z,19.00
2022-07-26T22:26:03.414Z,19.13
2022-07-26T22:28:33.189Z,19.40
2022-07-26T22:31:01.599Z,20.63
2022-07-26T22:33:31.202Z,18.63
2022-07-26T22:35:59.397Z,19.00
2022-07-26T22:38:27.635Z,19.13
2022-07-26T22:40:55.836Z,18.90
2022-07-26T22:43:24.026Z,19.30
2022-07-26T22:45:52.347Z,18.50
2022-07-26T22:48:20.627Z,19.13
2022-07-26T22:50:50.335Z,17.87
2022-07-26T22:53:18.518Z,18.17
2022-07-26T22:55:46.804Z,17.33
2022-07-26T22:58:15.096Z,17.83
2022-07-26T23:00:43.561Z,18.83
2022-07-26T23:03:20.314Z,16.80
2022-07-26T23:05:52.289Z,17.47
2022-07-26T23:08:47.017Z,18.27
2022-07-26T23:11:09.803Z,17.40
2022-07-26T23:13:37.986Z,16.83
2022-07-26T23:16:06.593Z,16.70
2022-07-26T23:18:35.342Z,17.80
2022-07-26T23:21:05.437Z,18.47
2022-07-26T23:23:33.733Z,18.50
2022-07-26T23:26:01.940Z,16.80
2022-07-26T23:28:36.758Z,17.43
2022-07-26T23:31:11.632Z,17.83
2022-07-26T23:33:52.972Z,16.43
2022-07-26T23:36:25.441Z,17.40
2022-07-26T23:38:54.044Z,16.80
2022-07-26T23:41:22.682Z,16.87
2022-07-26T23:43:50.882Z,15.30
2022-07-26T23:46:19.492Z,15.67
2022-07-26T23:48:48.019Z,16.37
2022-07-26T23:51:16.466Z,16.13
2022-07-26T23:53:46.369Z,17.00
2022-07-26T23:56:15.488Z,16.07
2022-07-26T23:58:43.750Z,16.03
